Time;durP1;ratioP1;P1;durP2;ratioP2;P2;SDS_P1;SDS_P2;PMS_P1;PMS_P2;Temp;Humidity;BMP_temperature;BMP_pressure;BME280_temperature;BME280_humidity;BME280_pressure;Samples;Min_cycle;Max_cycle;Signal;HPM_P1;HPM_P2
2023/07/02 00:01:20;;;;;;;15.00;14.50;;;19.20;99.90;;;;;;4887395;29;20548;-82
2023/07/02 00:03:49;;;;;;;15.73;15.03;;;19.20;99.90;;;;;;4879618;29;20475;-84
2023/07/02 00:06:18;;;;;;;15.63;15.00;;;19.20;99.90;;;;;;4875005;29;20479;-82
2023/07/02 00:08:46;;;;;;;15.87;15.20;;;19.20;99.90;;;;;;4876822;29;20508;-82
2023/07/02 00:11:16;;;;;;;14.60;14.20;;;19.10;99.90;;;;;;4874232;29;20471;-82
2023/07/02 00:13:44;;;;;;;15.50;14.93;;;19.10;99.90;;;;;;4878531;29;20494;-81
2023/07/02 00:16:13;;;;;;;15.10;14.60;;;19.10;99.90;;;;;;4874663;29;20846;-83
2023/07/02 00:18:42;;;;;;;16.30;15.60;;;19.10;99.90;;;;;;4878351;29;20491;-83
2023/07/02 00:21:13;;;;;;;15.67;15.10;;;19.10;99.90;;;;;;4878063;29;20464;-81
2023/07/02 00:23:41;;;;;;;14.90;14.40;;;19.00;99.90;;;;;;4878057;29;20518;-81
2023/07/02 00:26:10;;;;;;;15.53;15.03;;;19.00;99.90;;;;;;4881059;29;20484;-83
2023/07/02 00:28:39;;;;;;;15.30;14.80;;;19.00;99.90;;;;;;4875619;29;20483;-83
2023/07/02 00:31:08;;;;;;;14.97;14.50;;;19.00;1.00;;;;;;4879132;29;20472;-82
2023/07/02 00:33:36;;;;;;;15.37;14.57;;;19.00;99.90;;;;;;4876478;29;21033;-81
2023/07/02 00:36:06;;;;;;;15.00;14.50;;;19.00;99.90;;;;;;4875355;29;20540;-78
2023/07/02 00:38:34;;;;;;;14.50;14.00;;;19.00;99.90;;;;;;4876500;29;20482;-83
2023/07/02 00:41:02;;;;;;;14.23;13.80;;;19.00;23.50;;;;;;4877932;29;20506;-80
2023/07/02 00:43:30;;;;;;;14.33;13.93;;;19.00;1.00;;;;;;4864911;29;20451;-81
2023/07/02 00:45:59;;;;;;;15.07;14.57;;;19.00;1.00;;;;;;4873597;29;21120;-81
2023/07/02 00:48:27;;;;;;;14.87;14.33;;;19.00;1.00;;;;;;4879518;29;20486;-81
2023/07/02 00:50:56;;;;;;;15.00;14.37;;;18.90;1.00;;;;;;4873344;29;20482;-82
2023/07/02 00:53:26;;;;;;;14.80;14.33;;;19.00;1.00;;;;;;4875477;29;20473;-80
2023/07/02 00:55:54;;;;;;;14.83;14.33;;;19.00;99.90;;;;;;4877123;29;20468;-82
2023/07/02 00:58:25;;;;;;;14.97;14.43;;;19.00;99.90;;;;;;4875224;29;20488;-82
2023/07/02 01:00:56;;;;;;;15.20;14.70;;;19.00;99.90;;;;;;4877376;29;20458;-82
2023/07/02 01:03:24;;;;;;;15.30;14.50;;;19.00;99.90;;;;;;4877126;29;20469;-82
2023/07/02 01:05:52;;;;;;;14.57;14.17;;;19.00;99.90;;;;;;4879031;29;20503;-82
2023/07/02 01:08:20;;;;;;;14.63;14.23;;;19.00;99.90;;;;;;4870236;29;20540;-81
2023/07/02 01:10:50;;;;;;;15.10;14.40;;;19.00;99.90;;;;;;4872494;29;20459;-83
2023/07/02 01:13:22;;;;;;;14.70;13.90;;;18.90;99.90;;;;;;4867220;29;20714;-82
2023/07/02 01:15:51;;;;;;;15.13;14.53;;;18.90;99.90;;;;;;4875867;29;20462;-82
2023/07/02 01:18:19;;;;;;;14.63;14.20;;;18.90;99.90;;;;;;4875448;29;20480;-80
2023/07/02 01:20:49;;;;;;;14.73;14.23;;;18.90;99.90;;;;;;4872983;29;20575;-81
2023/07/02 01:23:18;;;;;;;14.73;14.23;;;18.90;99.90;;;;;;4873982;29;20530;-82
2023/07/02 01:25:46;;;;;;;13.93;13.53;;;18.90;99.90;;;;;;4878202;29;20471;-82
2023/07/02 01:28:14;;;;;;;14.63;13.90;;;18.90;99.90;;;;;;4873979;29;20490;-81
2023/07/02 01:30:42;;;;;;;14.50;14.10;;;18.90;99.90;;;;;;4880721;29;20475;-83
2023/07/02 01:33:11;;;;;;;15.27;14.47;;;18.80;99.90;;;;;;4873940;29;20499;-84
2023/07/02 01:35:39;;;;;;;15.53;14.80;;;18.80;99.90;;;;;;4879782;29;21140;-82
2023/07/02 01:38:09;;;;;;;14.90;14.30;;;18.80;99.90;;;;;;4871672;29;20765;-80
2023/07/02 01:40:37;;;;;;;15.20;14.70;;;18.80;99.90;;;;;;4876430;29;20466;-81
2023/07/02 01:43:05;;;;;;;15.07;14.53;;;18.70;99.90;;;;;;4878263;29;20562;-83
2023/07/02 01:45:33;;;;;;;14.40;13.90;;;18.70;99.90;;;;;;4877816;29;20474;-82
2023/07/02 01:48:01;;;;;;;15.13;14.63;;;18.60;99.90;;;;;;4875761;29;20878;-82
2023/07/02 01:50:30;;;;;;;15.00;14.30;;;18.70;99.90;;;;;;4876889;29;20473;-84
2023/07/02 01:52:59;;;;;;;15.00;14.50;;;18.70;99.90;;;;;;4874318;29;20594;-81
2023/07/02 01:55:28;;;;;;;15.00;14.50;;;18.70;99.90;;;;;;4873645;29;20467;-85
2023/07/02 01:57:56;;;;;;;14.77;14.27;;;18.70;99.90;;;;;;4878979;29;20467;-84
2023/07/02 02:00:25;;;;;;;14.70;14.13;;;18.70;99.90;;;;;;4876352;29;20463;-85
2023/07/02 02:02:53;;;;;;;14.83;14.33;;;18.70;99.90;;;;;;4873626;29;22048;-85
2023/07/02 02:05:21;;;;;;;14.17;13.77;;;18.70;99.90;;;;;;4878685;29;20844;-83
2023/07/02 02:07:49;;;;;;;14.73;14.00;;;18.80;99.90;;;;;;4871747;29;20494;-82
2023/07/02 02:10:18;;;;;;;14.67;14.17;;;18.80;88.90;;;;;;4871273;29;20566;-83
2023/07/02 02:12:50;;;;;;;14.67;14.07;;;18.80;87.60;;;;;;4875946;29;20458;-84
2023/07/02 02:15:18;;;;;;;15.20;14.60;;;18.80;63.00;;;;;;4876812;29;20467;-83
2023/07/02 02:17:46;;;;;;;14.80;14.30;;;18.80;62.70;;;;;;4875070;29;20484;-82
2023/07/02 02:20:16;;;;;;;14.03;13.63;;;18.80;74.10;;;;;;4877898;29;20519;-83
2023/07/02 02:22:44;;;;;;;14.73;14.13;;;18.80;72.00;;;;;;4874182;29;20455;-84
2023/07/02 02:25:13;;;;;;;14.93;14.07;;;18.80;86.60;;;;;;4872058;29;20451;-83
2023/07/02 02:27:43;;;;;;;14.07;13.67;;;18.80;42.10;;;;;;4876996;29;20483;-83
2023/07/02 02:30:13;;;;;;;14.07;13.67;;;18.80;76.40;;;;;;4875882;29;20448;-84
2023/07/02 02:32:41;;;;;;;13.97;13.57;;;18.80;49.30;;;;;;4877108;29;20472;-85
2023/07/02 02:35:10;;;;;;;14.20;13.70;;;18.90;1.00;;;;;;4877775;29;20456;-84
2023/07/02 02:37:39;;;;;;;14.13;13.70;;;18.80;1.00;;;;;;4880568;29;20487;-83
2023/07/02 02:40:09;;;;;;;15.00;14.50;;;18.90;1.00;;;;;;4881525;29;20481;-84
2023/07/02 02:42:39;;;;;;;14.07;13.67;;;18.80;1.00;;;;;;4877509;29;20456;-83
2023/07/02 02:45:08;;;;;;;14.27;13.87;;;18.80;1.00;;;;;;4879934;29;20463;-80
2023/07/02 02:47:38;;;;;;;14.57;14.07;;;18.80;1.00;;;;;;4882526;29;20890;-81
2023/07/02 02:50:09;;;;;;;15.40;14.47;;;18.80;1.00;;;;;;4884720;29;20460;-82
2023/07/02 02:52:37;;;;;;;14.43;13.83;;;18.80;1.00;;;;;;4880679;29;20478;-80
2023/07/02 02:55:07;;;;;;;14.03;13.63;;;18.80;1.00;;;;;;4881299;29;20495;-81
2023/07/02 02:57:36;;;;;;;14.20;13.70;;;18.80;1.00;;;;;;4876293;29;20482;-82
2023/07/02 03:00:04;;;;;;;14.13;13.63;;;18.80;1.00;;;;;;4880494;29;20969;-82
2023/07/02 03:02:33;;;;;;;14.90;14.40;;;18.80;4.40;;;;;;4874248;29;20471;-82
2023/07/02 03:05:03;;;;;;;15.07;14.27;;;18.80;73.00;;;;;;4881871;29;20459;-83
2023/07/02 03:07:32;;;;;;;14.77;14.23;;;18.80;89.90;;;;;;4876615;29;21135;-83
2023/07/02 03:10:00;;;;;;;14.47;13.90;;;18.70;99.90;;;;;;4877578;29;20731;-83
2023/07/02 03:12:28;;;;;;;14.40;13.80;;;18.60;99.90;;;;;;4879065;29;20467;-84
2023/07/02 03:14:56;;;;;;;14.87;14.37;;;18.60;99.90;;;;;;4882016;29;20460;-82
2023/07/02 03:17:25;;;;;;;14.73;14.03;;;18.50;1.00;;;;;;4877825;29;20559;-82
2023/07/02 03:19:54;;;;;;;15.03;14.20;;;18.50;1.00;;;;;;4881936;29;20954;-83
2023/07/02 03:22:25;;;;;;;14.33;13.83;;;18.40;1.00;;;;;;4876378;29;20491;-83
2023/07/02 03:24:55;;;;;;;15.20;14.30;;;18.40;99.90;;;;;;4880268;29;21036;-82
2023/07/02 03:27:24;;;;;;;14.43;14.00;;;18.40;99.90;;;;;;4878266;29;20561;-82
2023/07/02 03:29:53;;;;;;;14.43;13.93;;;18.40;99.90;;;;;;4880684;29;20455;-82
2023/07/02 03:32:21;;;;;;;14.90;14.30;;;18.30;99.90;;;;;;4875166;29;20462;-82
2023/07/02 03:34:49;;;;;;;15.63;14.90;;;18.30;99.90;;;;;;4879722;29;20472;-82
2023/07/02 03:37:18;;;;;;;15.10;14.47;;;18.30;1.00;;;;;;4878975;29;20488;-82
2023/07/02 03:39:47;;;;;;;14.93;14.27;;;18.30;4.90;;;;;;4877887;29;20467;-83
2023/07/02 03:42:17;;;;;;;15.37;14.67;;;18.20;1.00;;;;;;4877341;29;20462;-84
2023/07/02 03:44:45;;;;;;;15.07;14.57;;;18.10;1.00;;;;;;4879384;29;20911;-84
2023/07/02 03:47:15;;;;;;;14.73;14.10;;;18.10;54.50;;;;;;4879781;29;20481;-83
2023/07/02 03:49:46;;;;;;;14.73;13.97;;;18.10;4.60;;;;;;4879193;29;20495;-81
2023/07/02 03:52:14;;;;;;;15.20;14.60;;;18.10;1.00;;;;;;4879004;29;20539;-80
2023/07/02 03:54:43;;;;;;;15.50;14.90;;;18.10;99.90;;;;;;4878157;29;20464;-83
2023/07/02 03:57:12;;;;;;;15.30;14.30;;;18.10;99.90;;;;;;4877484;29;20534;-81
2023/07/02 03:59:41;;;;;;;15.37;14.60;;;18.00;99.90;;;;;;4882822;29;20470;-82
2023/07/02 04:02:09;;;;;;;15.63;15.07;;;18.00;99.90;;;;;;4870141;29;20466;-80
2023/07/02 04:04:37;;;;;;;15.70;14.90;;;18.00;99.90;;;;;;4874090;29;20462;-80
2023/07/02 04:07:06;;;;;;;15.47;14.77;;;18.00;1.00;;;;;;4888788;29;21005;-82
2023/07/02 04:09:34;;;;;;;14.97;14.47;;;17.90;99.90;;;;;;4876559;29;20498;-83
2023/07/02 04:12:03;;;;;;;15.07;14.40;;;18.00;1.00;;;;;;4881135;29;20491;-82
2023/07/02 04:14:32;;;;;;;14.97;14.37;;;17.90;1.00;;;;;;4876512;29;20466;-82
2023/07/02 04:17:04;;;;;;;14.33;13.80;;;17.90;99.90;;;;;;4871143;29;20483;-82
2023/07/02 04:19:32;;;;;;;15.20;14.60;;;17.90;1.00;;;;;;4873523;29;20471;-81
2023/07/02 04:22:00;;;;;;;15.30;14.80;;;18.00;99.90;;;;;;4881265;29;20463;-85
2023/07/02 04:24:29;;;;;;;15.10;14.30;;;18.00;99.90;;;;;;4876629;29;20498;-82
2023/07/02 04:26:59;;;;;;;14.67;14.17;;;18.00;99.90;;;;;;4882230;29;20539;-83
2023/07/02 04:29:49;;;;;;;14.80;14.30;;;18.00;99.90;;;;;;4880671;29;20482;-83
2023/07/02 04:32:17;;;;;;;15.03;14.53;;;18.00;1.00;;;;;;4881962;29;20523;-83
2023/07/02 04:34:45;;;;;;;16.13;15.33;;;18.00;1.00;;;;;;4871899;29;21900;-82
2023/07/02 04:37:15;;;;;;;14.80;14.20;;;18.00;1.00;;;;;;4879382;29;20486;-82
2023/07/02 04:39:43;;;;;;;15.40;14.70;;;18.10;99.90;;;;;;4876961;29;20508;-81
2023/07/02 04:42:13;;;;;;;15.10;14.50;;;18.10;99.90;;;;;;4878625;29;20481;-85
2023/07/02 04:44:43;;;;;;;15.90;15.20;;;18.10;40.30;;;;;;4891861;29;20550;-83
2023/07/02 04:47:12;;;;;;;15.47;14.87;;;18.10;99.90;;;;;;4877363;29;20577;-80
2023/07/02 04:49:40;;;;;;;15.27;14.77;;;18.10;99.90;;;;;;4876448;29;20610;-82
2023/07/02 04:52:09;;;;;;;16.27;15.57;;;18.10;99.90;;;;;;4879555;29;20578;-82
2023/07/02 04:54:37;;;;;;;14.97;14.47;;;18.10;1.00;;;;;;4879043;29;20769;-83
2023/07/02 04:57:05;;;;;;;15.13;14.33;;;18.10;99.90;;;;;;4875032;29;20503;-82
2023/07/02 04:59:34;;;;;;;15.00;14.40;;;18.10;99.90;;;;;;4875672;29;20551;-83
2023/07/02 05:02:02;;;;;;;15.23;14.63;;;18.20;99.90;;;;;;4876574;29;20973;-82
2023/07/02 05:04:31;;;;;;;15.07;14.47;;;18.20;99.90;;;;;;4878224;29;20957;-83
2023/07/02 05:07:00;;;;;;;14.93;14.37;;;18.20;95.00;;;;;;4879079;29;20483;-81
2023/07/02 05:09:29;;;;;;;15.53;15.00;;;18.30;99.90;;;;;;4882788;29;20590;-83
2023/07/02 05:11:57;;;;;;;16.00;15.40;;;18.30;98.60;;;;;;4878919;29;20455;-81
2023/07/02 05:14:25;;;;;;;15.60;15.00;;;18.30;99.90;;;;;;4879226;29;20478;-82
2023/07/02 05:16:54;;;;;;;15.03;14.20;;;18.30;1.00;;;;;;4877050;29;20539;-81
2023/07/02 05:19:22;;;;;;;15.53;14.87;;;18.30;1.00;;;;;;4880749;29;20455;-79
2023/07/02 05:21:51;;;;;;;15.67;14.97;;;18.20;1.00;;;;;;4878595;29;20474;-82
2023/07/02 05:24:20;;;;;;;15.27;14.63;;;18.30;1.00;;;;;;4875499;29;20927;-80
2023/07/02 05:26:48;;;;;;;17.03;15.83;;;18.30;1.00;;;;;;4880086;29;20473;-82
2023/07/02 05:29:16;;;;;;;15.87;15.07;;;18.20;1.00;;;;;;4879474;29;20502;-83
2023/07/02 05:31:48;;;;;;;15.70;14.97;;;18.10;1.00;;;;;;4876537;29;20941;-83
2023/07/02 05:34:16;;;;;;;15.33;14.73;;;18.20;99.90;;;;;;4877272;29;20470;-82
2023/07/02 05:36:44;;;;;;;16.03;15.20;;;18.20;99.90;;;;;;4875889;29;20940;-79
2023/07/02 05:39:14;;;;;;;15.70;14.70;;;18.20;99.90;;;;;;4875429;29;21133;-82
2023/07/02 05:41:42;;;;;;;16.80;16.10;;;18.20;99.90;;;;;;4878173;29;20467;-80
2023/07/02 05:44:10;;;;;;;17.10;16.10;;;18.20;99.90;;;;;;4875592;29;20987;-82
2023/07/02 05:46:39;;;;;;;16.77;15.97;;;18.20;99.90;;;;;;4872682;29;20470;-80
2023/07/02 05:49:07;;;;;;;16.10;15.30;;;18.20;99.90;;;;;;4878673;29;20636;-83
2023/07/02 05:51:35;;;;;;;18.40;17.30;;;18.20;99.90;;;;;;4877897;29;20450;-83
2023/07/02 05:54:04;;;;;;;17.07;16.27;;;18.20;99.90;;;;;;4878467;29;20458;-82
2023/07/02 05:56:33;;;;;;;17.57;16.50;;;18.20;99.90;;;;;;4874124;29;21040;-81
2023/07/02 05:59:01;;;;;;;18.67;17.37;;;18.30;99.90;;;;;;4875388;29;20551;-84
2023/07/02 06:01:30;;;;;;;17.53;16.60;;;18.30;99.90;;;;;;4872853;29;20472;-84
2023/07/02 06:03:58;;;;;;;17.47;16.77;;;18.30;99.90;;;;;;4877908;29;20991;-83
2023/07/02 06:06:27;;;;;;;18.13;17.00;;;18.30;99.90;;;;;;4874598;29;21723;-81
2023/07/02 06:08:55;;;;;;;18.50;17.00;;;18.40;99.90;;;;;;4880987;29;20499;-82
2023/07/02 06:11:23;;;;;;;18.57;17.50;;;18.40;99.90;;;;;;4877919;29;20464;-81
2023/07/02 06:13:53;;;;;;;18.87;17.87;;;18.40;17.80;;;;;;4883569;29;20456;-80
2023/07/02 06:16:21;;;;;;;18.67;17.50;;;18.50;59.70;;;;;;4882787;29;20842;-83
2023/07/02 06:18:50;;;;;;;18.43;17.43;;;18.50;99.90;;;;;;4879794;29;20552;-83
2023/07/02 06:21:19;;;;;;;18.93;17.93;;;18.60;69.50;;;;;;4884343;29;20534;-80
2023/07/02 06:23:48;;;;;;;19.30;18.20;;;18.70;99.90;;;;;;4880793;29;20839;-83
2023/07/02 06:26:16;;;;;;;19.40;18.20;;;18.70;52.40;;;;;;4876406;29;20996;-80
2023/07/02 06:28:44;;;;;;;19.10;17.70;;;18.80;15.00;;;;;;4873245;29;20922;-81
2023/07/02 06:31:14;;;;;;;19.92;18.52;;;18.80;18.60;;;;;;4880322;29;20873;-79
2023/07/02 06:33:43;;;;;;;19.53;18.30;;;18.70;52.50;;;;;;4874105;29;20306;-83
2023/07/02 06:36:13;;;;;;;19.67;18.37;;;18.90;38.00;;;;;;4883541;29;20463;-83
2023/07/02 06:38:44;;;;;;;18.73;17.63;;;18.90;1.00;;;;;;4885496;29;20486;-83
2023/07/02 06:41:12;;;;;;;20.30;18.87;;;18.80;20.40;;;;;;4882786;29;21008;-83
2023/07/02 06:43:42;;;;;;;21.90;20.20;;;18.80;1.00;;;;;;4880196;29;20554;-84
2023/07/02 06:46:11;;;;;;;21.60;20.20;;;18.90;1.00;;;;;;4886060;29;20559;-84
2023/07/02 06:48:41;;;;;;;23.57;20.93;;;18.90;1.00;;;;;;4878339;29;20515;-84
2023/07/02 06:51:12;;;;;;;23.13;21.20;;;18.90;1.00;;;;;;4884044;29;20491;-82
2023/07/02 06:53:40;;;;;;;23.50;21.63;;;19.00;1.00;;;;;;4878322;29;20455;-83
2023/07/02 06:56:09;;;;;;;21.83;20.30;;;19.00;1.00;;;;;;4875173;29;20466;-85
2023/07/02 06:58:37;;;;;;;22.60;20.90;;;19.00;1.00;;;;;;4879611;29;20483;-85
2023/07/02 07:01:05;;;;;;;21.83;20.30;;;19.00;1.00;;;;;;4861220;29;20845;-82
2023/07/02 07:03:33;;;;;;;22.03;20.33;;;19.10;1.00;;;;;;4876637;29;20448;-84
2023/07/02 07:06:03;;;;;;;22.30;20.57;;;19.30;1.00;;;;;;4878288;29;20451;-83
2023/07/02 07:08:31;;;;;;;21.50;20.00;;;19.40;1.00;;;;;;4872237;29;20490;-86
2023/07/02 07:10:59;;;;;;;22.50;20.90;;;19.40;1.00;;;;;;4881259;29;20487;-86
2023/07/02 07:13:27;;;;;;;23.00;21.00;;;19.40;1.00;;;;;;4885002;29;20466;-86
2023/07/02 07:15:56;;;;;;;23.80;22.03;;;19.50;1.00;;;;;;4880530;29;20463;-86
2023/07/02 07:18:24;;;;;;;23.17;21.37;;;19.50;1.00;;;;;;4873880;29;20501;-83
2023/07/02 07:20:53;;;;;;;25.77;23.47;;;19.50;1.00;;;;;;4868754;29;20961;-83
2023/07/02 07:23:22;;;;;;;24.07;22.20;;;19.60;1.00;;;;;;4881390;29;20933;-84
2023/07/02 07:25:50;;;;;;;25.23;23.43;;;19.60;1.00;;;;;;4889784;29;20467;-82
2023/07/02 07:28:19;;;;;;;25.20;23.37;;;19.70;1.00;;;;;;4878790;29;21033;-84
2023/07/02 07:30:47;;;;;;;24.10;22.50;;;19.80;1.00;;;;;;4873803;29;20860;-84
2023/07/02 07:33:16;;;;;;;23.73;21.73;;;19.90;99.90;;;;;;4880374;29;21068;-84
2023/07/02 07:35:44;;;;;;;24.67;22.77;;;19.90;99.90;;;;;;4868655;29;20463;-81
2023/07/02 07:38:14;;;;;;;25.80;22.83;;;19.90;99.90;;;;;;4875412;29;20478;-84
2023/07/02 07:40:44;;;;;;;23.70;21.63;;;19.90;99.90;;;;;;4876511;29;20575;-82
2023/07/02 07:43:13;;;;;;;25.27;23.13;;;20.00;99.90;;;;;;4868645;29;20537;-80
2023/07/02 07:45:41;;;;;;;25.93;23.80;;;20.00;99.90;;;;;;4869420;29;20479;-83
2023/07/02 07:48:09;;;;;;;26.07;24.10;;;20.10;99.90;;;;;;4875640;29;21021;-82
2023/07/02 07:50:40;;;;;;;25.07;23.07;;;20.10;99.90;;;;;;4868295;29;21040;-81
2023/07/02 07:53:08;;;;;;;27.40;24.90;;;20.20;99.90;;;;;;4869520;29;20466;-81
2023/07/02 07:55:36;;;;;;;23.90;22.00;;;20.20;99.90;;;;;;4867231;29;20477;-79
2023/07/02 07:58:06;;;;;;;26.47;24.40;;;20.10;99.90;;;;;;4864618;29;20862;-83
2023/07/02 08:00:34;;;;;;;25.70;23.67;;;20.20;99.90;;;;;;4878506;29;20456;-82
2023/07/02 08:03:03;;;;;;;25.23;22.93;;;20.10;99.90;;;;;;4894255;29;20461;-80
2023/07/02 08:05:32;;;;;;;24.77;22.47;;;20.10;99.90;;;;;;4871012;29;20703;-81
2023/07/02 08:08:00;;;;;;;23.97;22.10;;;20.10;99.90;;;;;;4877588;29;20512;-83
2023/07/02 08:10:28;;;;;;;25.37;22.97;;;20.10;99.90;;;;;;4883221;29;20487;-79
2023/07/02 08:12:57;;;;;;;22.90;20.90;;;20.10;99.90;;;;;;4872998;29;20460;-82
2023/07/02 08:15:36;;;;;;;23.83;21.93;;;20.20;99.90;;;;;;4882231;29;20466;-81
2023/07/02 08:18:07;;;;;;;23.63;21.70;;;20.20;99.90;;;;;;4883870;29;20483;-81
2023/07/02 08:20:37;;;;;;;24.40;22.40;;;20.30;99.90;;;;;;4883262;29;20538;-80
2023/07/02 08:23:25;;;;;;;23.43;21.30;;;20.20;99.90;;;;;;4884314;29;20686;-85
2023/07/02 08:26:09;;;;;;;23.90;21.77;;;20.30;99.90;;;;;;4883646;29;20493;-79
2023/07/02 08:28:40;;;;;;;23.30;21.40;;;20.40;99.90;;;;;;4882352;29;20538;-79
2023/07/02 08:31:09;;;;;;;24.53;22.23;;;20.50;99.90;;;;;;4881135;29;20488;-85
2023/07/02 08:33:58;;;;;;;24.07;21.93;;;20.60;99.90;;;;;;4883748;29;20478;-81
2023/07/02 08:36:52;;;;;;;25.70;23.40;;;20.70;99.90;;;;;;4882386;29;20896;-80
2023/07/02 08:39:40;;;;;;;24.27;22.13;;;20.70;99.90;;;;;;4885261;29;20454;-82
2023/07/02 08:42:16;;;;;;;24.70;22.60;;;20.70;99.90;;;;;;4881463;29;20463;-83
2023/07/02 08:44:58;;;;;;;23.63;21.53;;;20.80;99.90;;;;;;4881360;29;21097;-82
2023/07/02 08:47:34;;;;;;;23.60;21.83;;;20.70;99.90;;;;;;4886060;29;20481;-80
2023/07/02 08:50:18;;;;;;;;;;;;;;;;;;;;;
2023/07/02 08:52:49;;;;;;;22.33;20.57;;;20.80;99.90;;;;;;4873210;29;20467;-77
2023/07/02 08:55:22;;;;;;;22.77;21.20;;;20.80;99.90;;;;;;4880850;29;20556;-82
2023/07/02 08:57:54;;;;;;;22.73;20.77;;;20.90;99.90;;;;;;4872407;29;20588;-82
2023/07/02 09:00:30;;;;;;;23.10;21.13;;;21.00;99.90;;;;;;4863257;29;20456;-82
2023/07/02 09:03:13;;;;;;;21.83;20.00;;;21.00;99.90;;;;;;4877122;29;20834;-83
2023/07/02 09:05:55;;;;;;;22.43;20.70;;;21.10;99.90;;;;;;4875058;29;20490;-80
2023/07/02 09:08:43;;;;;;;24.07;22.00;;;21.10;99.90;;;;;;4877151;29;20748;-84
2023/07/02 09:11:15;;;;;;;23.63;21.63;;;21.20;99.90;;;;;;4879197;29;20483;-82
2023/07/02 09:13:52;;;;;;;21.60;20.13;;;21.20;99.90;;;;;;4879144;29;20467;-81
2023/07/02 09:16:36;;;;;;;22.38;20.67;;;21.30;99.90;;;;;;4861260;29;20476;-83
2023/07/02 09:19:08;;;;;;;22.33;20.63;;;21.30;99.90;;;;;;4867545;29;20261;-87
2023/07/02 09:21:42;;;;;;;22.17;20.30;;;21.40;99.90;;;;;;4872472;29;21000;-84
2023/07/02 09:24:18;;;;;;;21.67;19.93;;;21.40;99.90;;;;;;4865096;29;20482;-86
2023/07/02 09:26:53;;;;;;;22.70;21.00;;;21.40;99.90;;;;;;4869797;29;20505;-84
2023/07/02 09:29:24;;;;;;;21.40;20.10;;;21.40;99.90;;;;;;4879772;29;20465;-83
2023/07/02 09:32:04;;;;;;;22.53;20.60;;;21.30;99.90;;;;;;4881185;29;20496;-85
2023/07/02 09:34:50;;;;;;;22.37;20.60;;;21.50;99.90;;;;;;4881150;29;20471;-83
2023/07/02 09:37:19;;;;;;;23.40;21.13;;;21.60;99.90;;;;;;4880100;29;20484;-85
2023/07/02 09:39:51;;;;;;;23.30;21.27;;;21.70;99.90;;;;;;4878144;29;21092;-84
2023/07/02 09:42:20;;;;;;;23.93;22.07;;;21.70;99.90;;;;;;4881033;29;20953;-80
2023/07/02 09:44:52;;;;;;;24.80;22.83;;;21.70;99.90;;;;;;4873531;29;20523;-84
2023/07/02 09:47:22;;;;;;;26.63;24.27;;;21.80;99.90;;;;;;4876663;29;20486;-84
2023/07/02 09:49:55;;;;;;;24.07;22.07;;;21.70;99.90;;;;;;4872839;29;22012;-85
2023/07/02 09:52:24;;;;;;;23.90;21.90;;;21.70;99.90;;;;;;4870752;29;20493;-83
2023/07/02 09:54:53;;;;;;;25.67;23.03;;;21.70;99.90;;;;;;4879496;29;20909;-81
2023/07/02 09:57:34;;;;;;;24.20;22.00;;;21.60;99.90;;;;;;4879277;29;21048;-84
2023/07/02 10:00:08;;;;;;;25.47;23.50;;;21.60;99.90;;;;;;4879088;29;20479;-84
2023/07/02 10:02:38;;;;;;;24.40;22.50;;;21.60;99.90;;;;;;4888732;29;20475;-84
2023/07/02 10:05:44;;;;;;;24.17;22.17;;;21.70;99.90;;;;;;4876050;29;20478;-82
2023/07/02 10:08:15;;;;;;;24.10;22.20;;;21.70;99.90;;;;;;4795688;29;20539;-84
2023/07/02 10:10:43;;;;;;;23.50;21.57;;;21.70;99.90;;;;;;4796118;29;21009;-85
2023/07/02 10:13:13;;;;;;;22.10;20.40;;;21.70;99.90;;;;;;4797136;29;20511;-85
2023/07/02 10:18:41;;;;;;;24.10;21.87;;;21.70;99.90;;;;;;4800242;29;20889;-85
2023/07/02 10:21:21;;;;;;;22.60;20.60;;;21.80;99.90;;;;;;4872815;29;20738;-84
2023/07/02 10:23:49;;;;;;;22.60;20.90;;;22.00;99.90;;;;;;4871646;29;20462;-83
2023/07/02 10:26:19;;;;;;;24.83;22.87;;;21.90;99.90;;;;;;4877015;29;20546;-85
2023/07/02 10:28:57;;;;;;;25.20;23.10;;;22.00;99.90;;;;;;4876888;29;20489;-83
2023/07/02 10:32:04;;;;;;;23.83;21.90;;;21.90;99.90;;;;;;4879059;29;20572;-84
2023/07/02 10:34:36;;;;;;;24.40;22.30;;;21.90;99.90;;;;;;4879440;29;20459;-81
2023/07/02 10:37:08;;;;;;;24.50;22.20;;;22.00;99.90;;;;;;4878238;29;20483;-85
2023/07/02 10:39:40;;;;;;;23.83;21.80;;;22.00;99.90;;;;;;4878473;29;20505;-81
2023/07/02 10:42:10;;;;;;;24.33;21.90;;;22.00;99.90;;;;;;4879818;29;20845;-84
2023/07/02 10:45:13;;;;;;;22.60;20.43;;;22.00;99.90;;;;;;4881943;29;20471;-84
2023/07/02 10:48:13;;;;;;;22.97;21.03;;;22.00;99.90;;;;;;4861639;29;20488;-82
2023/07/02 10:50:41;;;;;;;21.83;20.17;;;22.10;99.90;;;;;;4880363;29;20466;-85
2023/07/02 10:53:24;;;;;;;22.10;20.40;;;22.20;99.90;;;;;;4879140;29;20497;-84
2023/07/02 10:55:56;;;;;;;22.00;20.30;;;22.20;99.90;;;;;;4879965;29;20463;-82
2023/07/02 10:58:26;;;;;;;23.73;21.60;;;22.10;99.90;;;;;;4884103;29;20484;-83
2023/07/02 11:00:54;;;;;;;22.03;20.33;;;22.10;99.90;;;;;;4880589;29;20470;-84
2023/07/02 11:03:32;;;;;;;22.10;20.30;;;22.20;99.90;;;;;;4882051;29;20455;-84
2023/07/02 11:06:05;;;;;;;20.73;18.93;;;22.30;99.90;;;;;;4881131;29;20472;-85
2023/07/02 11:08:38;;;;;;;21.03;19.03;;;22.30;99.90;;;;;;4882172;29;20485;-84
2023/07/02 11:11:07;;;;;;;20.77;19.10;;;22.30;99.90;;;;;;4883048;29;20472;-84
2023/07/02 11:13:45;;;;;;;20.50;18.53;;;22.40;99.90;;;;;;4884427;29;20495;-84
2023/07/02 11:16:24;;;;;;;21.10;19.20;;;22.50;99.90;;;;;;4882991;29;20451;-85
2023/07/02 11:19:08;;;;;;;20.63;18.93;;;22.50;99.90;;;;;;4884326;29;20486;-85
2023/07/02 11:21:37;;;;;;;20.63;18.93;;;22.50;99.90;;;;;;4884140;29;20470;-85
2023/07/02 11:24:09;;;;;;;20.67;19.10;;;22.50;99.90;;;;;;4880103;29;20476;-84
2023/07/02 11:26:37;;;;;;;22.13;20.17;;;22.60;99.90;;;;;;4882511;29;20461;-84
2023/07/02 11:29:13;;;;;;;21.10;19.30;;;22.60;99.90;;;;;;4885265;29;20458;-85
2023/07/02 11:31:41;;;;;;;21.80;19.70;;;22.50;99.90;;;;;;4878594;29;21171;-81
2023/07/02 11:34:19;;;;;;;21.90;19.83;;;22.60;99.90;;;;;;4877730;29;20623;-84
2023/07/02 11:36:53;;;;;;;19.33;17.67;;;22.70;99.90;;;;;;4879973;29;20543;-84
2023/07/02 11:39:23;;;;;;;19.27;17.63;;;22.80;99.90;;;;;;4886903;29;20921;-84
2023/07/02 11:41:55;;;;;;;21.00;19.03;;;22.80;99.90;;;;;;4880145;29;20987;-81
2023/07/02 11:44:33;;;;;;;21.90;19.50;;;22.90;99.90;;;;;;4885193;29;20487;-84
2023/07/02 11:47:02;;;;;;;19.77;17.97;;;22.90;99.90;;;;;;4874157;29;20525;-82
2023/07/02 11:49:33;;;;;;;20.07;18.23;;;22.90;99.90;;;;;;4882638;29;20474;-83
2023/07/02 11:52:09;;;;;;;18.77;17.37;;;22.90;99.90;;;;;;4878220;29;20495;-82
2023/07/02 11:54:39;;;;;;;19.27;17.50;;;22.90;99.90;;;;;;4879754;29;20734;-81
2023/07/02 11:57:08;;;;;;;20.23;18.47;;;23.00;99.90;;;;;;4879404;29;20495;-77
2023/07/02 11:59:37;;;;;;;19.77;17.97;;;23.10;99.90;;;;;;4878086;29;20489;-81
2023/07/02 12:02:06;;;;;;;19.97;17.97;;;23.10;99.90;;;;;;4875772;29;20479;-78
2023/07/02 12:04:43;;;;;;;19.43;17.93;;;23.20;99.90;;;;;;4868467;29;20548;-81
2023/07/02 12:07:17;;;;;;;19.43;17.83;;;23.20;99.90;;;;;;4880431;29;20489;-80
2023/07/02 12:09:50;;;;;;;18.97;17.20;;;23.30;99.90;;;;;;4875071;29;20467;-80
2023/07/02 12:12:18;;;;;;;19.73;17.80;;;23.30;99.90;;;;;;4873299;29;20486;-78
2023/07/02 12:14:47;;;;;;;19.90;18.20;;;23.40;99.90;;;;;;4874640;29;20531;-80
2023/07/02 12:17:15;;;;;;;21.47;19.70;;;23.40;99.90;;;;;;4872804;29;20568;-80
2023/07/02 12:19:46;;;;;;;18.73;17.30;;;23.40;99.90;;;;;;4878681;29;20475;-80
2023/07/02 12:22:40;;;;;;;20.17;18.57;;;23.50;99.90;;;;;;4875433;29;20468;-79
2023/07/02 12:25:29;;;;;;;21.97;19.67;;;23.50;99.90;;;;;;4874420;29;20540;-79
2023/07/02 12:31:53;;;;;;;19.33;17.33;;;23.50;99.90;;;;;;4863722;29;20494;-80
2023/07/02 12:34:54;;;;;;;19.03;17.53;;;23.50;99.90;;;;;;4859991;29;20844;-79
2023/07/02 12:37:23;;;;;;;18.40;16.83;;;23.60;99.90;;;;;;4852350;29;20589;-79
2023/07/02 12:39:52;;;;;;;17.10;15.70;;;23.50;99.90;;;;;;4856732;29;20468;-78
2023/07/02 12:42:21;;;;;;;19.13;17.43;;;23.50;99.90;;;;;;4856124;29;20773;-80
2023/07/02 12:44:50;;;;;;;19.00;17.30;;;23.50;99.90;;;;;;4861280;29;20865;-82
2023/07/02 12:47:18;;;;;;;17.67;16.17;;;23.50;99.90;;;;;;4857606;29;20482;-80
2023/07/02 12:49:46;;;;;;;18.77;17.17;;;23.50;99.90;;;;;;4858443;29;20475;-80
2023/07/02 12:52:14;;;;;;;19.77;16.53;;;23.60;99.90;;;;;;4860202;29;20451;-79
2023/07/02 12:54:42;;;;;;;16.93;15.43;;;23.60;99.90;;;;;;4861605;29;20451;-78
2023/07/02 12:57:10;;;;;;;19.50;17.60;;;23.60;99.90;;;;;;4854547;29;20593;-79